createdAt,value
2019-03-04T00:00:57.469Z,96844.15
2019-03-04T00:03:29.434Z,96827.80
2019-03-04T00:06:01.381Z,96810.89
2019-03-04T00:08:33.280Z,96808.37
2019-03-04T00:11:05.312Z,96805.47
2019-03-04T00:13:37.230Z,96800.45
2019-03-04T00:16:09.183Z,96791.92
2019-03-04T00:18:41.068Z,96793.89
2019-03-04T00:21:13.054Z,96788.64
2019-03-04T00:23:44.939Z,96788.16
2019-03-04T00:26:16.877Z,96787.63
2019-03-04T00:28:48.769Z,96781.48
2019-03-04T00:31:20.732Z,96777.01
2019-03-04T00:33:52.719Z,96774.97
2019-03-04T00:36:24.657Z,96777.70
2019-03-04T00:38:56.645Z,96774.25
2019-03-04T00:41:28.575Z,96765.73
2019-03-04T00:44:00.471Z,96769.09
2019-03-04T00:46:32.405Z,96773.86
2019-03-04T00:49:04.392Z,96770.03
2019-03-04T00:51:36.332Z,96772.87
2019-03-04T00:54:08.313Z,96767.02
2019-03-04T00:56:40.259Z,96765.14
2019-03-04T00:59:12.141Z,96761.20
2019-03-04T01:01:44.083Z,96762.14
2019-03-04T01:04:15.971Z,96755.89
2019-03-04T01:06:47.894Z,96752.86
2019-03-04T01:09:20.052Z,96747.56
2019-03-04T01:11:51.988Z,96747.70
2019-03-04T01:14:23.878Z,96741.30
2019-03-04T01:16:55.815Z,96742.36
2019-03-04T01:19:27.723Z,96743.86
2019-03-04T01:21:59.690Z,96735.27
2019-03-04T01:24:31.583Z,96731.96
2019-03-04T01:27:03.534Z,96720.17
2019-03-04T01:29:35.425Z,96717.45
2019-03-04T01:32:07.379Z,96714.14
2019-03-04T01:34:39.581Z,96706.78
2019-03-04T01:37:11.509Z,96691.84
2019-03-04T01:39:43.406Z,96685.13
2019-03-04T01:42:15.353Z,96670.81
2019-03-04T01:44:47.256Z,96657.63
2019-03-04T01:47:19.481Z,96653.38
2019-03-04T01:49:51.377Z,96644.82
2019-03-04T01:52:23.304Z,96645.11
2019-03-04T01:54:55.201Z,96635.31
2019-03-04T01:57:27.141Z,96630.34
2019-03-04T01:59:59.042Z,96618.76
2019-03-04T02:02:31.374Z,96624.02
2019-03-04T02:05:03.289Z,96631.36
2019-03-04T02:07:35.227Z,96625.66
2019-03-04T02:10:09.109Z,96625.33
2019-03-04T02:12:41.053Z,96623.72
2019-03-04T02:15:15.771Z,96617.16
2019-03-04T02:17:48.119Z,96603.27
2019-03-04T02:20:20.446Z,96602.66
2019-03-04T02:22:52.389Z,96610.91
2019-03-04T02:25:57.983Z,96605.83
2019-03-04T02:28:29.914Z,96605.94
2019-03-04T02:31:01.825Z,96586.55
2019-03-04T02:33:33.736Z,96587.97
2019-03-04T02:36:05.657Z,96586.37
2019-03-04T02:38:37.575Z,96576.09
2019-03-04T02:41:09.467Z,96562.47
2019-03-04T02:43:41.400Z,96563.63
2019-03-04T02:46:13.297Z,96554.80
2019-03-04T02:48:45.243Z,96558.70
2019-03-04T02:51:17.137Z,96545.72
2019-03-04T02:53:49.066Z,96541.58
2019-03-04T02:56:20.959Z,96535.13
2019-03-04T02:58:53.187Z,96527.91
2019-03-04T03:01:25.060Z,96535.80
2019-03-04T03:03:56.999Z,96533.86
2019-03-04T03:06:28.995Z,96519.72
2019-03-04T03:09:00.916Z,96521.00
2019-03-04T03:11:32.827Z,96510.69
2019-03-04T03:14:04.857Z,96512.94
2019-03-04T03:16:36.759Z,96525.90
2019-03-04T03:19:08.698Z,96511.61
2019-03-04T03:21:40.622Z,96509.55
2019-03-04T03:24:12.563Z,96510.78
2019-03-04T03:26:44.464Z,96512.08
2019-03-04T03:29:16.483Z,96509.02
2019-03-04T03:31:48.395Z,96509.14
2019-03-04T03:34:20.321Z,96499.95
2019-03-04T03:36:52.705Z,96497.33
2019-03-04T03:39:24.636Z,96496.00
2019-03-04T03:41:56.535Z,96495.52
2019-03-04T03:44:28.455Z,96497.91
2019-03-04T03:47:00.374Z,96491.81
2019-03-04T03:49:32.291Z,96486.69
2019-03-04T03:52:04.182Z,96485.56
2019-03-04T03:54:36.129Z,96491.39
2019-03-04T03:57:08.025Z,96486.59
2019-03-04T03:59:39.956Z,96483.38
2019-03-04T04:02:11.884Z,96476.18
2019-03-04T04:04:43.814Z,96477.34
2019-03-04T04:07:15.712Z,96476.87
2019-03-04T04:09:47.641Z,96481.50
2019-03-04T04:12:19.548Z,96488.56
2019-03-04T04:14:51.480Z,96489.41
2019-03-04T04:17:23.384Z,96486.98
2019-03-04T04:19:55.319Z,96495.85
2019-03-04T04:22:27.277Z,96492.52
2019-03-04T04:24:59.211Z,96496.39
2019-03-04T04:27:31.173Z,96494.80
2019-03-04T04:30:03.522Z,96438.43
2019-03-04T04:32:35.422Z,96436.34
2019-03-04T04:35:07.795Z,96466.51
2019-03-04T04:37:39.801Z,96468.86
2019-03-04T04:40:11.950Z,96450.88
2019-03-04T04:42:43.948Z,96433.92
2019-03-04T04:45:15.985Z,96444.42
2019-03-04T04:47:47.897Z,96442.09
2019-03-04T04:50:19.881Z,96432.05
2019-03-04T04:52:51.781Z,96422.30
2019-03-04T04:55:23.712Z,96411.80
2019-03-04T04:57:55.698Z,96401.56
2019-03-04T05:00:27.632Z,96383.16
2019-03-04T05:02:59.543Z,96377.11
2019-03-04T05:05:31.470Z,96363.69
2019-03-04T05:08:03.370Z,96360.23
2019-03-04T05:10:35.297Z,96345.30
2019-03-04T05:13:07.199Z,96330.34
2019-03-04T05:15:39.121Z,96311.24
2019-03-04T05:18:11.025Z,96315.54
2019-03-04T05:20:43.075Z,96309.38
2019-03-04T05:23:15.077Z,96300.49
2019-03-04T05:25:47.062Z,96294.59
2019-03-04T05:28:18.954Z,96284.30
2019-03-04T05:30:50.893Z,96287.03
2019-03-04T05:33:22.794Z,96288.86
2019-03-04T05:35:54.734Z,96271.25
2019-03-04T05:38:26.630Z,96274.19
2019-03-04T05:40:58.557Z,96270.50
2019-03-04T05:43:30.455Z,96271.81
2019-03-04T05:46:02.397Z,96253.20
2019-03-04T05:48:34.285Z,96241.70
2019-03-04T05:51:06.216Z,96230.16
2019-03-04T05:53:38.134Z,96229.23
2019-03-04T05:56:10.076Z,96217.58
2019-03-04T05:58:41.971Z,96209.56
2019-03-04T06:01:31.889Z,96205.06
2019-03-04T06:04:09.593Z,96207.52
2019-03-04T06:06:54.512Z,96199.52
2019-03-04T06:09:26.698Z,96191.69
2019-03-04T06:11:58.654Z,96171.81
2019-03-04T06:14:30.587Z,96166.56
2019-03-04T06:17:02.514Z,96147.30
2019-03-04T06:19:34.715Z,96123.41
2019-03-04T06:22:06.661Z,96120.03
2019-03-04T06:24:38.722Z,96108.95
2019-03-04T06:27:10.730Z,96108.44
2019-03-04T06:29:42.666Z,96104.33
2019-03-04T06:32:14.604Z,96103.57
2019-03-04T06:34:46.493Z,96122.45
2019-03-04T06:37:18.423Z,96128.98
2019-03-04T06:39:50.358Z,96126.53
2019-03-04T06:42:22.486Z,96130.17
2019-03-04T06:44:54.415Z,96116.70
2019-03-04T06:47:26.350Z,96107.27
2019-03-04T06:49:58.278Z,96102.56
2019-03-04T06:52:30.222Z,96091.37
2019-03-04T06:55:48.538Z,96087.44
2019-03-04T06:58:20.469Z,96083.30
2019-03-04T07:01:11.014Z,96090.81
2019-03-04T07:03:54.315Z,96098.47
2019-03-04T07:06:26.258Z,96103.30
2019-03-04T07:09:21.850Z,96093.88
2019-03-04T07:11:54.954Z,96076.22
2019-03-04T07:14:27.017Z,96055.30
2019-03-04T07:16:59.204Z,96053.72
2019-03-04T07:19:34.362Z,96059.33
2019-03-04T07:22:06.595Z,96063.53
2019-03-04T07:24:38.623Z,96069.48
2019-03-04T07:27:10.712Z,96060.48
2019-03-04T07:29:42.800Z,96063.38
2019-03-04T07:32:14.920Z,96073.51
2019-03-04T07:34:46.930Z,96063.87
2019-03-04T07:37:18.950Z,96056.30
2019-03-04T07:39:51.056Z,96060.30
2019-03-04T07:42:23.071Z,96044.36
2019-03-04T07:44:55.084Z,96042.88
2019-03-04T07:47:27.175Z,96044.60
2019-03-04T07:49:59.179Z,96040.80
2019-03-04T07:52:31.197Z,96044.87
2019-03-04T07:55:03.241Z,96032.11
2019-03-04T07:57:35.387Z,96040.15
2019-03-04T08:00:08.458Z,96037.39
2019-03-04T08:02:47.404Z,96035.86
2019-03-04T08:05:20.333Z,96039.23
2019-03-04T08:07:54.099Z,96040.03
2019-03-04T08:11:22.800Z,96042.44
2019-03-04T08:13:59.742Z,96051.97
2019-03-04T08:16:31.828Z,96055.82
2019-03-04T08:19:03.838Z,96065.31
2019-03-04T08:21:35.998Z,96063.16
2019-03-04T08:24:08.001Z,96054.03
2019-03-04T08:26:40.021Z,96048.39
2019-03-04T08:29:12.333Z,96052.67
2019-03-04T08:31:44.428Z,96056.39
2019-03-04T08:34:16.446Z,96062.86
2019-03-04T08:36:48.539Z,96072.22
2019-03-04T08:39:22.830Z,96076.20
2019-03-04T08:41:54.354Z,96079.40
2019-03-04T08:44:26.363Z,96099.91
2019-03-04T08:46:58.379Z,96106.33
2019-03-04T08:49:30.361Z,96117.28
2019-03-04T08:52:02.638Z,96130.27
2019-03-04T08:54:34.729Z,96143.94
2019-03-04T08:57:06.765Z,96150.42
2019-03-04T08:59:40.249Z,96155.33
2019-03-04T09:02:13.846Z,96155.09
2019-03-04T09:04:45.874Z,96159.22
2019-03-04T09:07:18.056Z,96160.66
2019-03-04T09:09:50.353Z,96158.11
2019-03-04T09:12:22.474Z,96151.20
2019-03-04T09:14:54.558Z,96158.63
2019-03-04T09:17:28.492Z,96151.20
2019-03-04T09:20:00.545Z,96165.89
2019-03-04T09:22:32.624Z,96172.02
2019-03-04T09:25:05.497Z,96180.91
2019-03-04T09:27:37.526Z,96179.41
2019-03-04T09:30:11.207Z,96166.63
2019-03-04T09:32:43.227Z,96176.73
2019-03-04T09:35:15.730Z,96184.51
2019-03-04T09:37:47.855Z,96187.77
2019-03-04T09:40:20.123Z,96207.63
2019-03-04T09:42:52.366Z,96209.27
2019-03-04T09:45:24.397Z,96219.95
2019-03-04T09:47:56.491Z,96234.16
2019-03-04T09:50:28.720Z,96258.72
2019-03-04T09:53:00.919Z,96273.91
2019-03-04T09:55:33.278Z,96267.98
2019-03-04T09:58:05.518Z,96218.99
2019-03-04T10:01:33.096Z,96196.94
2019-03-04T10:05:08.528Z,96167.65
2019-03-04T10:08:07.212Z,96159.37
2019-03-04T10:11:53.122Z,96142.09
2019-03-04T10:15:23.172Z,96129.54
2019-03-04T10:18:36.047Z,96111.33
2019-03-04T10:21:36.931Z,96111.33
2019-03-04T10:25:03.118Z,96092.39
2019-03-04T10:28:27.021Z,96068.46
2019-03-04T10:31:44.009Z,96048.81
2019-03-04T10:35:00.534Z,96032.44
2019-03-04T10:39:04.046Z,96059.72
2019-03-04T10:42:35.755Z,96028.69
2019-03-04T10:45:37.000Z,96029.47
2019-03-04T10:48:09.097Z,96055.60
2019-03-04T10:50:41.164Z,96026.12
2019-03-04T10:53:13.528Z,96036.42
2019-03-04T10:55:45.616Z,96034.52
2019-03-04T10:58:17.706Z,96054.69
2019-03-04T11:00:49.718Z,96049.21
2019-03-04T11:03:21.730Z,96073.03
2019-03-04T11:05:53.751Z,96070.64
2019-03-04T11:08:25.871Z,96060.87
2019-03-04T11:10:57.944Z,96057.56
2019-03-04T11:13:30.048Z,96035.01
2019-03-04T11:16:02.228Z,96056.69
2019-03-04T11:18:34.244Z,96045.41
2019-03-04T11:21:06.897Z,96060.71
2019-03-04T11:23:39.054Z,96048.19
2019-03-04T11:26:11.144Z,96070.97
2019-03-04T11:28:43.253Z,96038.13
2019-03-04T11:31:15.334Z,96043.17
2019-03-04T11:33:47.363Z,96074.80
2019-03-04T11:36:19.448Z,96073.55
2019-03-04T11:39:02.144Z,96065.22
2019-03-04T11:41:34.153Z,96055.42
2019-03-04T11:44:06.457Z,96065.45
2019-03-04T11:46:38.536Z,96064.80
2019-03-04T11:49:10.626Z,96059.62
2019-03-04T11:51:43.705Z,96050.91
2019-03-04T11:54:15.808Z,96051.25
2019-03-04T11:56:47.823Z,96039.64
2019-03-04T11:59:19.845Z,96037.40
2019-03-04T12:01:51.929Z,96034.98
2019-03-04T12:04:23.954Z,95990.05
2019-03-04T12:06:55.964Z,95979.89
2019-03-04T12:09:27.994Z,96007.77
2019-03-04T12:12:00.177Z,96006.48
2019-03-04T12:14:32.212Z,96037.75
2019-03-04T12:17:04.287Z,96027.11
2019-03-04T12:19:36.389Z,96024.52
2019-03-04T12:22:08.400Z,96037.89
2019-03-04T12:24:40.665Z,96039.34
2019-03-04T12:27:13.088Z,96023.11
2019-03-04T12:29:45.281Z,96034.55
2019-03-04T12:32:48.269Z,96042.25
2019-03-04T12:35:20.709Z,96035.17
2019-03-04T12:37:52.855Z,96028.91
2019-03-04T12:40:25.224Z,96035.56
2019-03-04T12:42:57.241Z,96035.86
2019-03-04T12:45:34.450Z,96044.57
2019-03-04T12:48:02.968Z,96064.25
2019-03-04T12:50:35.177Z,96057.31
2019-03-04T12:53:07.441Z,96070.34
2019-03-04T12:55:39.451Z,96059.88
2019-03-04T12:58:11.862Z,96071.29
2019-03-04T13:00:44.053Z,96058.78
2019-03-04T13:03:24.797Z,96070.86
2019-03-04T13:05:56.885Z,96057.83
2019-03-04T13:08:28.903Z,96047.55
2019-03-04T13:11:00.917Z,96055.45
2019-03-04T13:13:33.005Z,96046.15
2019-03-04T13:16:05.719Z,96043.91
2019-03-04T13:18:37.805Z,96039.53
2019-03-04T13:21:09.891Z,96026.36
2019-03-04T13:23:45.108Z,96023.93
2019-03-04T13:26:17.332Z,96033.47
2019-03-04T13:28:50.224Z,96024.63
2019-03-04T13:31:22.330Z,96018.52
2019-03-04T13:33:54.421Z,96034.00
2019-03-04T13:36:26.427Z,96014.02
2019-03-04T13:38:58.437Z,96029.34
2019-03-04T13:41:30.629Z,96000.08
2019-03-04T13:44:02.718Z,96010.52
2019-03-04T13:46:36.958Z,96012.28
2019-03-04T13:49:09.049Z,96032.09
2019-03-04T13:51:41.142Z,96023.89
2019-03-04T13:54:13.251Z,96034.34
2019-03-04T13:56:45.265Z,96033.22
2019-03-04T13:59:17.341Z,96018.27
2019-03-04T14:01:49.375Z,96023.74
2019-03-04T14:04:21.394Z,96021.63
2019-03-04T14:06:53.650Z,96031.16
2019-03-04T14:09:25.780Z,96020.34
2019-03-04T14:11:57.901Z,96017.44
2019-03-04T14:14:30.025Z,96025.34
2019-03-04T14:17:02.305Z,96015.69
2019-03-04T14:19:34.404Z,96026.62
2019-03-04T14:22:06.516Z,96000.73
2019-03-04T14:24:38.570Z,96013.94
2019-03-04T14:27:10.583Z,96002.34
2019-03-04T14:29:42.590Z,96013.95
2019-03-04T14:32:14.682Z,96014.44
2019-03-04T14:34:46.759Z,96012.04
2019-03-04T14:37:19.220Z,95994.16
2019-03-04T14:39:51.314Z,95999.80
2019-03-04T14:42:23.338Z,95998.34
2019-03-04T14:44:55.527Z,95992.55
2019-03-04T14:47:27.555Z,95982.06
2019-03-04T14:50:09.440Z,95992.53
2019-03-04T14:52:33.277Z,95988.37
2019-03-04T14:55:05.474Z,95984.49
2019-03-04T14:57:37.570Z,95982.41
2019-03-04T15:00:18.419Z,95969.70
2019-03-04T15:02:50.489Z,95966.98
2019-03-04T15:05:22.540Z,95978.25
2019-03-04T15:07:55.715Z,95987.41
2019-03-04T15:10:28.042Z,95996.76
2019-03-04T15:13:00.448Z,96006.53
2019-03-04T15:15:33.025Z,96004.45
2019-03-04T15:18:05.361Z,96010.59
2019-03-04T15:20:37.648Z,96003.33
2019-03-04T15:23:09.811Z,96026.50
2019-03-04T15:25:42.029Z,96028.25
2019-03-04T15:28:19.602Z,96041.59
2019-03-04T15:30:55.049Z,96034.92
2019-03-04T15:33:27.252Z,96021.38
2019-03-04T15:36:00.081Z,96031.20
2019-03-04T15:38:32.146Z,96026.03
2019-03-04T15:41:04.369Z,96020.41
2019-03-04T15:43:36.451Z,96012.30
2019-03-04T15:46:08.482Z,96016.61
2019-03-04T15:48:40.580Z,96024.30
2019-03-04T15:51:12.667Z,96028.36
2019-03-04T15:53:44.763Z,96036.70
2019-03-04T15:56:16.953Z,96043.55
2019-03-04T15:58:49.151Z,96046.64
2019-03-04T16:01:21.266Z,96051.55
2019-03-04T16:03:53.389Z,96052.84
2019-03-04T16:06:25.418Z,96048.14
2019-03-04T16:08:57.496Z,96041.12
2019-03-04T16:11:29.646Z,96048.57
2019-03-04T16:14:01.675Z,96045.19
2019-03-04T16:16:33.914Z,96052.13
2019-03-04T16:19:06.130Z,96055.02
2019-03-04T16:21:38.141Z,96055.02
2019-03-04T16:24:10.355Z,96047.64
2019-03-04T16:26:42.570Z,96038.16
2019-03-04T16:29:14.911Z,96031.22
2019-03-04T16:31:47.000Z,96025.27
2019-03-04T16:34:19.012Z,96029.45
2019-03-04T16:36:51.404Z,96032.04
2019-03-04T16:39:23.906Z,96025.59
2019-03-04T16:41:55.994Z,96012.72
2019-03-04T16:44:28.012Z,96026.22
2019-03-04T16:47:00.120Z,96037.47
2019-03-04T16:49:32.329Z,96052.60
2019-03-04T16:52:07.691Z,96073.20
2019-03-04T16:54:39.788Z,96148.05
2019-03-04T16:57:15.548Z,96211.42
2019-03-04T16:59:47.519Z,96232.97
2019-03-04T17:02:19.455Z,96194.81
2019-03-04T17:04:51.374Z,96194.53
2019-03-04T17:07:23.298Z,96195.13
2019-03-04T17:09:56.617Z,96201.28
2019-03-04T17:12:28.751Z,96219.80
2019-03-04T17:15:00.686Z,96217.12
2019-03-04T17:17:32.919Z,96220.80
2019-03-04T17:20:05.976Z,96238.75
2019-03-04T17:22:37.915Z,96254.80
2019-03-04T17:25:12.847Z,96246.95
2019-03-04T17:27:45.144Z,96256.30
2019-03-04T17:30:18.824Z,96250.17
2019-03-04T17:32:51.061Z,96249.44
2019-03-04T17:35:25.867Z,96247.83
2019-03-04T17:37:57.802Z,96251.75
2019-03-04T17:40:29.865Z,96243.70
2019-03-04T17:43:01.794Z,96258.76
2019-03-04T17:45:33.843Z,96259.09
2019-03-04T17:48:05.977Z,96266.75
2019-03-04T17:50:38.469Z,96243.68
2019-03-04T17:53:10.983Z,96258.97
2019-03-04T17:55:43.795Z,96273.92
2019-03-04T17:58:16.392Z,96275.16
2019-03-04T18:00:52.814Z,96293.94
2019-03-04T18:03:24.834Z,96297.16
2019-03-04T18:05:56.988Z,96300.94
2019-03-04T18:08:28.930Z,96306.37
2019-03-04T18:11:00.981Z,96308.08
2019-03-04T18:13:33.132Z,96308.88
2019-03-04T18:16:05.330Z,96322.62
2019-03-04T18:18:37.253Z,96325.06
2019-03-04T18:21:09.275Z,96330.37
2019-03-04T18:23:41.322Z,96342.20
2019-03-04T18:26:25.111Z,96376.14
2019-03-04T18:29:36.533Z,96375.74
2019-03-04T18:33:10.058Z,96383.25
2019-03-04T18:36:43.400Z,96391.75
2019-03-04T18:40:14.278Z,96384.16
2019-03-04T18:43:43.303Z,96397.38
2019-03-04T18:47:13.532Z,96409.19
2019-03-04T18:49:45.434Z,96427.88
2019-03-04T18:52:17.381Z,96440.34
2019-03-04T18:54:49.280Z,96446.36
2019-03-04T18:57:21.210Z,96460.67
2019-03-04T18:59:53.102Z,96461.03
2019-03-04T19:02:25.031Z,96471.98
2019-03-04T19:04:56.922Z,96478.55
2019-03-04T19:07:28.947Z,96483.94
2019-03-04T19:10:01.151Z,96487.87
2019-03-04T19:12:33.087Z,96493.44
2019-03-04T19:15:05.802Z,96517.46
2019-03-04T19:17:38.799Z,96520.53
2019-03-04T19:20:13.289Z,96524.07
2019-03-04T19:22:45.330Z,96530.68
2019-03-04T19:25:17.219Z,96535.69
2019-03-04T19:27:50.629Z,96528.98
2019-03-04T19:30:22.554Z,96542.33
2019-03-04T19:32:54.485Z,96549.96
2019-03-04T19:35:26.418Z,96562.86
2019-03-04T19:37:58.396Z,96574.04
2019-03-04T19:40:30.346Z,96578.55
2019-03-04T19:43:02.280Z,96583.91
2019-03-04T19:45:34.208Z,96580.73
2019-03-04T19:48:06.145Z,96596.55
2019-03-04T19:50:38.073Z,96586.67
2019-03-04T19:53:11.121Z,96591.74
2019-03-04T19:55:43.150Z,96594.22
2019-03-04T19:58:15.086Z,96602.93
2019-03-04T20:00:47.113Z,96602.81
2019-03-04T20:03:19.529Z,96607.48
2019-03-04T20:05:51.729Z,96615.38
2019-03-04T20:08:23.741Z,96609.59
2019-03-04T20:10:55.860Z,96611.83
2019-03-04T20:13:28.085Z,96610.55
2019-03-04T20:16:00.117Z,96619.14
2019-03-04T20:18:32.043Z,96625.20
2019-03-04T20:21:04.176Z,96626.92
2019-03-04T20:23:36.213Z,96627.12
2019-03-04T20:26:08.277Z,96626.88
2019-03-04T20:28:40.199Z,96645.91
2019-03-04T20:31:12.392Z,96637.00
2019-03-04T20:33:45.140Z,96650.94
2019-03-04T20:36:17.140Z,96657.69
2019-03-04T20:38:50.083Z,96659.29
2019-03-04T20:41:22.013Z,96656.94
2019-03-04T20:43:53.957Z,96662.44
2019-03-04T20:46:25.918Z,96664.11
2019-03-04T20:48:57.891Z,96665.91
2019-03-04T20:51:29.852Z,96667.38
2019-03-04T20:54:01.817Z,96672.84
2019-03-04T20:56:33.752Z,96673.25
2019-03-04T20:59:05.887Z,96677.13
2019-03-04T21:01:37.808Z,96689.90
2019-03-04T21:04:09.959Z,96681.44
2019-03-04T21:06:41.993Z,96693.00
2019-03-04T21:09:14.305Z,96699.23
2019-03-04T21:11:46.290Z,96697.23
2019-03-04T21:14:18.225Z,96703.27
2019-03-04T21:16:50.261Z,96709.61
2019-03-04T21:19:22.284Z,96704.22
2019-03-04T21:21:55.682Z,96708.53
2019-03-04T21:24:27.751Z,96717.91
2019-03-04T21:27:00.054Z,96722.41
2019-03-04T21:29:56.092Z,96728.28
2019-03-04T21:33:12.617Z,96725.56
2019-03-04T21:36:45.577Z,96723.44
2019-03-04T21:39:17.823Z,96733.45
2019-03-04T21:42:24.089Z,96740.70
2019-03-04T21:45:56.502Z,96748.91
2019-03-04T21:48:50.141Z,96749.66
2019-03-04T21:52:40.620Z,96751.06
2019-03-04T21:55:19.840Z,96767.18
2019-03-04T21:57:57.999Z,96761.99
2019-03-04T22:00:40.006Z,96763.02
2019-03-04T22:03:28.321Z,96771.39
2019-03-04T22:06:00.678Z,96769.69
2019-03-04T22:08:32.604Z,96774.78
2019-03-04T22:11:05.065Z,96777.84
2019-03-04T22:13:36.976Z,96778.72
2019-03-04T22:16:09.085Z,96787.88
2019-03-04T22:18:41.200Z,96787.00
2019-03-04T22:21:16.660Z,96790.02
2019-03-04T22:23:46.918Z,96794.89
2019-03-04T22:26:18.920Z,96797.78
2019-03-04T22:28:50.878Z,96802.70
2019-03-04T22:31:22.752Z,96801.89
2019-03-04T22:33:54.676Z,96804.94
2019-03-04T22:36:26.574Z,96801.13
2019-03-04T22:38:58.519Z,96802.84
2019-03-04T22:41:30.559Z,96798.74
2019-03-04T22:44:02.500Z,96798.22
2019-03-04T22:46:34.393Z,96803.41
2019-03-04T22:49:06.321Z,96802.31
2019-03-04T22:51:38.232Z,96794.55
2019-03-04T22:54:10.175Z,96795.03
2019-03-04T22:56:42.080Z,96794.08
2019-03-04T22:59:14.031Z,96793.95
2019-03-04T23:02:14.108Z,96798.42
2019-03-04T23:04:59.188Z,96804.12
2019-03-04T23:07:46.960Z,96808.91
2019-03-04T23:10:48.223Z,96809.98
2019-03-04T23:14:03.115Z,96815.36
2019-03-04T23:16:35.367Z,96815.80
2019-03-04T23:19:07.356Z,96810.42
2019-03-04T23:21:39.288Z,96811.66
2019-03-04T23:24:11.221Z,96803.49
2019-03-04T23:26:43.146Z,96795.14
2019-03-04T23:29:15.041Z,96796.31
2019-03-04T23:31:46.977Z,96793.63
2019-03-04T23:34:18.879Z,96793.07
2019-03-04T23:36:50.801Z,96789.29
2019-03-04T23:39:22.707Z,96788.97
2019-03-04T23:41:54.639Z,96788.49
2019-03-04T23:44:26.528Z,96786.53
2019-03-04T23:46:58.456Z,96790.40
2019-03-04T23:49:30.355Z,96793.75
2019-03-04T23:52:02.279Z,96792.64
2019-03-04T23:54:34.171Z,96790.92
2019-03-04T23:57:06.093Z,96788.90
2019-03-04T23:59:38.056Z,96791.98
